createdAt,value
2019-03-18T00:04:00.000Z,98255
2019-03-18T00:09:00.000Z,98251
2019-03-18T00:14:00.000Z,98245
2019-03-18T00:20:00.000Z,98256
2019-03-18T00:25:00.000Z,98248
2019-03-18T00:30:00.000Z,98260
2019-03-18T00:35:00.000Z,98280
2019-03-18T00:40:00.000Z,98267
2019-03-18T00:45:00.000Z,98290
2019-03-18T00:50:00.000Z,98307
2019-03-18T00:55:00.000Z,98297
2019-03-18T01:00:00.000Z,98291
2019-03-18T01:05:00.000Z,98317
2019-03-18T01:10:00.000Z,98321
2019-03-18T01:15:00.000Z,98321
2019-03-18T01:20:00.000Z,98318
2019-03-18T01:25:00.000Z,98320
2019-03-18T01:30:00.000Z,98318
2019-03-18T01:35:00.000Z,98318
2019-03-18T01:40:00.000Z,98315
2019-03-18T01:45:00.000Z,98320
2019-03-18T01:50:00.000Z,98293
2019-03-18T01:55:00.000Z,98295
2019-03-18T02:00:00.000Z,98280
2019-03-18T02:05:00.000Z,98314
2019-03-18T02:10:00.000Z,98324
2019-03-18T02:15:00.000Z,98313
2019-03-18T02:20:00.000Z,98323
2019-03-18T02:25:00.000Z,98333
2019-03-18T02:30:00.000Z,98326
2019-03-18T02:35:00.000Z,98322
2019-03-18T02:40:00.000Z,98327
2019-03-18T02:45:00.000Z,98332
2019-03-18T02:51:00.000Z,98337
2019-03-18T02:56:00.000Z,98348
2019-03-18T03:01:00.000Z,98327
2019-03-18T03:06:00.000Z,98333
2019-03-18T03:11:00.000Z,98321
2019-03-18T03:16:00.000Z,98351
2019-03-18T03:21:00.000Z,98349
2019-03-18T03:26:00.000Z,98355
2019-03-18T03:31:00.000Z,98377
2019-03-18T03:36:00.000Z,98368
2019-03-18T03:41:00.000Z,98350
2019-03-18T03:46:00.000Z,98364
2019-03-18T03:51:00.000Z,98366
2019-03-18T03:56:00.000Z,98359
2019-03-18T04:01:00.000Z,98365
2019-03-18T04:06:00.000Z,98399
2019-03-18T04:11:00.000Z,98466
2019-03-18T04:16:00.000Z,98481
2019-03-18T04:22:00.000Z,98440
2019-03-18T04:27:00.000Z,98452
2019-03-18T04:32:00.000Z,98440
2019-03-18T04:42:00.000Z,98450
2019-03-18T04:47:00.000Z,98455
2019-03-18T04:52:00.000Z,98438
2019-03-18T04:57:00.000Z,98443
2019-03-18T05:02:00.000Z,98488
2019-03-18T05:07:00.000Z,98487
2019-03-18T05:12:00.000Z,98486
2019-03-18T05:17:00.000Z,98492
2019-03-18T05:22:00.000Z,98514
2019-03-18T05:27:00.000Z,98517
2019-03-18T05:32:00.000Z,98529
2019-03-18T05:37:00.000Z,98507
2019-03-18T05:42:00.000Z,98507
2019-03-18T05:47:00.000Z,98567
2019-03-18T05:52:00.000Z,98581
2019-03-18T05:57:00.000Z,98574
2019-03-18T06:02:00.000Z,98596
2019-03-18T06:07:00.000Z,98618
2019-03-18T06:13:00.000Z,98646
2019-03-18T06:18:00.000Z,98645
2019-03-18T06:23:00.000Z,98626
2019-03-18T06:28:00.000Z,98620
2019-03-18T06:33:00.000Z,98625
2019-03-18T06:38:00.000Z,98633
2019-03-18T06:43:00.000Z,98636
2019-03-18T06:48:00.000Z,98622
2019-03-18T06:53:00.000Z,98618
2019-03-18T06:58:00.000Z,98628
2019-03-18T07:03:00.000Z,98621
2019-03-18T07:08:00.000Z,98621
2019-03-18T07:13:00.000Z,98675
2019-03-18T07:18:00.000Z,98687
2019-03-18T07:23:00.000Z,98697
2019-03-18T07:28:00.000Z,98687
2019-03-18T07:33:00.000Z,98715
2019-03-18T07:38:00.000Z,98706
2019-03-18T07:43:00.000Z,98717
2019-03-18T07:48:00.000Z,98703
2019-03-18T07:53:00.000Z,98714
2019-03-18T07:58:00.000Z,98739
2019-03-18T08:03:00.000Z,98707
2019-03-18T08:08:00.000Z,98740
2019-03-18T08:13:00.000Z,98723
2019-03-18T08:18:00.000Z,98719
2019-03-18T08:23:00.000Z,98697
2019-03-18T08:28:00.000Z,98710
2019-03-18T08:33:00.000Z,98709
2019-03-18T08:38:00.000Z,98723
2019-03-18T08:43:00.000Z,98716
2019-03-18T08:48:00.000Z,98694
2019-03-18T08:53:00.000Z,98726
2019-03-18T08:58:00.000Z,98736
2019-03-18T09:03:00.000Z,98733
2019-03-18T09:08:00.000Z,98733
2019-03-18T09:13:00.000Z,98708
2019-03-18T09:19:00.000Z,98734
2019-03-18T09:24:00.000Z,98733
2019-03-18T09:29:00.000Z,98751
2019-03-18T09:34:00.000Z,98778
2019-03-18T09:39:00.000Z,98770
2019-03-18T09:44:00.000Z,98783
2019-03-18T09:49:00.000Z,98768
2019-03-18T09:54:00.000Z,98770
2019-03-18T09:59:00.000Z,98755
2019-03-18T10:04:00.000Z,98798
2019-03-18T10:09:00.000Z,98795
2019-03-18T10:14:00.000Z,98773
2019-03-18T10:19:00.000Z,98762
2019-03-18T10:24:00.000Z,98787
2019-03-18T10:29:00.000Z,98815
2019-03-18T10:34:00.000Z,98811
2019-03-18T10:39:00.000Z,98837
2019-03-18T10:44:00.000Z,98835
2019-03-18T10:49:00.000Z,98830
2019-03-18T10:54:00.000Z,98846
2019-03-18T10:59:00.000Z,98842
2019-03-18T11:04:00.000Z,98826
2019-03-18T11:09:00.000Z,98840
2019-03-18T11:14:00.000Z,98839
2019-03-18T11:19:00.000Z,98858
2019-03-18T11:24:00.000Z,98849
2019-03-18T11:30:00.000Z,98858
2019-03-18T11:35:00.000Z,98849
2019-03-18T11:40:00.000Z,98829
2019-03-18T11:45:00.000Z,98821
2019-03-18T11:50:00.000Z,98806
2019-03-18T11:55:00.000Z,98811
2019-03-18T12:00:00.000Z,98802
2019-03-18T12:05:00.000Z,98806
2019-03-18T12:10:00.000Z,98819
2019-03-18T12:15:00.000Z,98802
2019-03-18T12:20:00.000Z,98806
2019-03-18T12:25:00.000Z,98804
2019-03-18T12:30:00.000Z,98786
2019-03-18T12:35:00.000Z,98791
2019-03-18T12:40:00.000Z,98786
2019-03-18T12:45:00.000Z,98794
2019-03-18T12:50:00.000Z,98778
2019-03-18T12:55:00.000Z,98806
2019-03-18T13:00:00.000Z,98794
2019-03-18T13:05:00.000Z,98793
2019-03-18T13:10:00.000Z,98789
2019-03-18T13:15:00.000Z,98813
2019-03-18T13:21:00.000Z,98771
2019-03-18T13:26:00.000Z,98773
2019-03-18T13:31:00.000Z,98780
2019-03-18T13:36:00.000Z,98789
2019-03-18T13:41:00.000Z,98781
2019-03-18T13:46:00.000Z,98819
2019-03-18T13:51:00.000Z,98804
2019-03-18T13:56:00.000Z,98813
2019-03-18T14:01:00.000Z,98811
2019-03-18T14:06:00.000Z,98809
2019-03-18T14:11:00.000Z,98799
2019-03-18T14:16:00.000Z,98809
2019-03-18T14:21:00.000Z,98767
2019-03-18T14:26:00.000Z,98799
2019-03-18T14:31:00.000Z,98813
2019-03-18T14:36:00.000Z,98819
2019-03-18T14:41:00.000Z,98823
2019-03-18T14:46:00.000Z,98839
2019-03-18T14:51:00.000Z,98826
2019-03-18T14:56:00.000Z,98837
2019-03-18T15:01:00.000Z,98841
2019-03-18T15:06:00.000Z,98843
2019-03-18T15:11:00.000Z,98848
2019-03-18T15:16:00.000Z,98837
2019-03-18T15:21:00.000Z,98829
2019-03-18T15:26:00.000Z,98843
2019-03-18T15:31:00.000Z,98838
2019-03-18T15:37:00.000Z,98857
2019-03-18T15:42:00.000Z,98862
2019-03-18T15:47:00.000Z,98859
2019-03-18T15:52:00.000Z,98861
2019-03-18T15:57:00.000Z,98854
2019-03-18T16:02:00.000Z,98880
2019-03-18T16:07:00.000Z,98886
2019-03-18T16:12:00.000Z,98907
2019-03-18T16:17:00.000Z,98925
2019-03-18T16:22:00.000Z,98923
2019-03-18T16:27:00.000Z,98919
2019-03-18T16:32:00.000Z,98924
2019-03-18T16:37:00.000Z,98921
2019-03-18T16:42:00.000Z,98916
2019-03-18T16:47:00.000Z,98918
2019-03-18T16:52:00.000Z,98929
2019-03-18T16:57:00.000Z,98949
2019-03-18T17:02:00.000Z,98941
2019-03-18T17:07:00.000Z,98952
2019-03-18T17:12:00.000Z,98966
2019-03-18T17:17:00.000Z,98974
2019-03-18T17:22:00.000Z,98976
2019-03-18T17:27:00.000Z,98998
2019-03-18T17:32:00.000Z,99000
2019-03-18T17:37:00.000Z,99021
2019-03-18T17:42:00.000Z,99019
2019-03-18T17:47:00.000Z,99018
2019-03-18T17:52:00.000Z,99020
2019-03-18T17:58:00.000Z,99029
2019-03-18T18:03:00.000Z,99029
2019-03-18T18:08:00.000Z,99045
2019-03-18T18:13:00.000Z,99044
2019-03-18T18:18:00.000Z,99057
2019-03-18T18:23:00.000Z,99068
2019-03-18T18:28:00.000Z,99061
2019-03-18T18:33:00.000Z,99066
2019-03-18T18:38:00.000Z,99070
2019-03-18T18:43:00.000Z,99071
2019-03-18T18:48:00.000Z,99073
2019-03-18T18:53:00.000Z,99086
2019-03-18T18:58:00.000Z,99089
2019-03-18T19:03:00.000Z,99088
2019-03-18T19:08:00.000Z,99088
2019-03-18T19:13:00.000Z,99087
2019-03-18T19:18:00.000Z,99103
2019-03-18T19:23:00.000Z,99115
2019-03-18T19:28:00.000Z,99106
2019-03-18T19:33:00.000Z,99118
2019-03-18T19:38:00.000Z,99128
2019-03-18T19:43:00.000Z,99119
2019-03-18T19:48:00.000Z,99134
2019-03-18T19:53:00.000Z,99140
2019-03-18T19:58:00.000Z,99151
2019-03-18T20:03:00.000Z,99154
2019-03-18T20:08:00.000Z,99158
2019-03-18T20:13:00.000Z,99184
2019-03-18T20:18:00.000Z,99171
2019-03-18T20:23:00.000Z,99174
2019-03-18T20:29:00.000Z,99174
2019-03-18T20:34:00.000Z,99172
2019-03-18T20:39:00.000Z,99177
2019-03-18T20:44:00.000Z,99172
2019-03-18T20:49:00.000Z,99183
2019-03-18T20:54:00.000Z,99191
2019-03-18T20:59:00.000Z,99195
2019-03-18T21:04:00.000Z,99207
2019-03-18T21:09:00.000Z,99191
2019-03-18T21:14:00.000Z,99210
2019-03-18T21:19:00.000Z,99197
2019-03-18T21:24:00.000Z,99200
2019-03-18T21:29:00.000Z,99224
2019-03-18T21:34:00.000Z,99235
2019-03-18T21:39:00.000Z,99229
2019-03-18T21:44:00.000Z,99234
2019-03-18T21:49:00.000Z,99240
2019-03-18T21:54:00.000Z,99236
2019-03-18T21:59:00.000Z,99233
2019-03-18T22:04:00.000Z,99240
2019-03-18T22:09:00.000Z,99254
2019-03-18T22:14:00.000Z,99251
2019-03-18T22:19:00.000Z,99253
2019-03-18T22:24:00.000Z,99257
2019-03-18T22:29:00.000Z,99260
2019-03-18T22:34:00.000Z,99276
2019-03-18T22:39:00.000Z,99272
2019-03-18T22:44:00.000Z,99271
2019-03-18T22:49:00.000Z,99271
2019-03-18T22:54:00.000Z,99284
2019-03-18T22:59:00.000Z,99274
2019-03-18T23:04:00.000Z,99278
2019-03-18T23:09:00.000Z,99264
2019-03-18T23:14:00.000Z,99269
2019-03-18T23:19:00.000Z,99259
2019-03-18T23:25:00.000Z,99268
2019-03-18T23:30:00.000Z,99273
2019-03-18T23:35:00.000Z,99261
2019-03-18T23:40:00.000Z,99263
2019-03-18T23:45:00.000Z,99269
2019-03-18T23:50:00.000Z,99264
2019-03-18T23:55:00.000Z,99266
